Time;durP1;ratioP1;P1;durP2;ratioP2;P2;SDS_P1;SDS_P2;PMS_P1;PMS_P2;Temp;Humidity;BMP_temperature;BMP_pressure;BME280_temperature;BME280_humidity;BME280_pressure;Samples;Min_cycle;Max_cycle;Signal;HPM_P1;HPM_P2
2022/01/12 06:00:36;;;;;;;12.60;11.40;;;2.40;97.20;;;;;;1701981;29;20214;-82
2022/01/12 06:01:26;;;;;;;12.15;10.95;;;2.40;97.20;;;;;;1703230;29;20244;-81
2022/01/12 06:02:18;;;;;;;12.83;11.60;;;2.40;97.20;;;;;;1702337;29;20210;-80
2022/01/12 06:03:09;;;;;;;13.20;12.00;;;2.40;97.20;;;;;;1702926;29;20477;-81
2022/01/12 06:04:01;;;;;;;12.40;11.10;;;2.40;97.20;;;;;;1702976;29;20210;-80
2022/01/12 06:04:51;;;;;;;12.38;11.07;;;2.40;97.20;;;;;;1702926;29;20235;-80
2022/01/12 06:05:43;;;;;;;11.53;10.33;;;2.40;97.20;;;;;;1702468;29;20209;-82
2022/01/12 06:06:34;;;;;;;11.80;10.80;;;2.40;97.20;;;;;;1703655;29;20943;-82
2022/01/12 06:07:26;;;;;;;12.43;11.23;;;2.40;97.20;;;;;;1702653;29;20651;-83
2022/01/12 06:08:16;;;;;;;11.93;10.90;;;2.40;97.20;;;;;;1702699;29;20210;-82
2022/01/12 06:09:08;;;;;;;13.10;11.90;;;2.40;97.20;;;;;;1702286;29;20198;-81
2022/01/12 06:09:59;;;;;;;13.05;11.75;;;2.40;97.20;;;;;;1703525;29;20248;-81
2022/01/12 06:10:50;;;;;;;12.67;11.50;;;2.40;97.20;;;;;;1703475;29;20223;-80
2022/01/12 06:11:41;;;;;;;13.05;11.85;;;2.30;97.20;;;;;;1703332;29;20214;-80
2022/01/12 06:12:33;;;;;;;12.63;11.43;;;2.30;97.20;;;;;;1703696;29;20214;-80
2022/01/12 06:13:24;;;;;;;12.50;11.30;;;2.30;97.20;;;;;;1703662;29;20211;-82
2022/01/12 06:14:18;;;;;;;12.63;11.53;;;2.30;97.20;;;;;;1703040;29;20706;-82
2022/01/12 06:15:09;;;;;;;12.55;11.30;;;2.30;97.20;;;;;;1703463;29;20200;-83
2022/01/12 06:16:03;;;;;;;11.65;10.57;;;2.30;97.20;;;;;;1703175;29;20207;-82
2022/01/12 06:16:53;;;;;;;11.60;10.60;;;2.30;97.20;;;;;;1704063;29;20207;-83
2022/01/12 06:17:45;;;;;;;12.40;11.20;;;2.30;97.20;;;;;;1702667;29;20207;-83
2022/01/12 06:18:36;;;;;;;10.13;9.23;;;2.30;97.20;;;;;;1702689;29;20212;-82
2022/01/12 06:19:27;;;;;;;10.40;9.40;;;2.30;97.20;;;;;;1702870;29;20195;-82
2022/01/12 06:20:18;;;;;;;10.15;9.25;;;2.30;97.20;;;;;;1702453;29;20266;-82
2022/01/12 06:21:10;;;;;;;9.90;9.00;;;2.30;97.20;;;;;;1702776;29;20210;-81
2022/01/12 06:22:01;;;;;;;11.15;10.05;;;2.30;97.20;;;;;;1703532;29;20451;-81
2022/01/12 06:22:52;;;;;;;11.60;9.70;;;2.40;97.20;;;;;;1702240;29;20199;-81
2022/01/12 06:23:44;;;;;;;9.68;8.77;;;2.40;97.20;;;;;;1697421;29;20511;-82
2022/01/12 06:24:35;;;;;;;10.00;9.10;;;2.40;97.20;;;;;;1696950;29;20235;-81
2022/01/12 06:25:27;;;;;;;10.90;9.90;;;2.40;97.20;;;;;;1702221;29;20203;-81
2022/01/12 06:26:21;;;;;;;10.52;9.52;;;2.40;97.20;;;;;;1702609;29;20682;-81
2022/01/12 06:27:15;;;;;;;10.20;9.18;;;2.40;97.20;;;;;;1702641;29;20642;-81
2022/01/12 06:28:22;;;;;;;10.57;9.57;;;2.40;97.20;;;;;;1702424;29;20679;-81
2022/01/12 06:29:27;;;;;;;9.43;8.60;;;2.40;97.20;;;;;;1696340;29;20577;-80
2022/01/12 06:31:31;;;;;;;10.07;9.23;;;2.30;97.20;;;;;;1695933;29;20212;-80
2022/01/12 06:32:22;;;;;;;10.77;9.88;;;2.30;97.20;;;;;;1702675;29;20250;-81
2022/01/12 06:33:14;;;;;;;10.87;9.87;;;2.30;97.20;;;;;;1702663;29;20199;-80
2022/01/12 06:34:05;;;;;;;10.75;9.85;;;2.30;97.20;;;;;;1702240;29;20211;-80
2022/01/12 06:34:56;;;;;;;11.57;10.43;;;2.30;97.20;;;;;;1701656;29;20267;-80
2022/01/12 06:35:47;;;;;;;11.70;10.52;;;2.30;97.20;;;;;;1702454;29;20217;-80
2022/01/12 06:36:39;;;;;;;11.63;10.43;;;2.20;97.20;;;;;;1702482;29;20203;-81
2022/01/12 06:37:30;;;;;;;11.82;10.73;;;2.20;97.20;;;;;;1701763;29;20214;-80
2022/01/12 06:38:22;;;;;;;12.43;11.23;;;2.10;97.20;;;;;;1701179;29;20202;-79
2022/01/12 06:39:16;;;;;;;13.15;11.95;;;2.10;97.20;;;;;;1702366;29;20263;-80
2022/01/12 06:40:09;;;;;;;11.35;10.20;;;2.00;97.20;;;;;;1701767;29;20710;-80
2022/01/12 06:41:01;;;;;;;13.77;11.00;;;2.00;97.20;;;;;;1701849;29;20471;-81
2022/01/12 06:41:54;;;;;;;12.45;11.25;;;2.00;97.20;;;;;;1702396;29;20203;-80
2022/01/12 06:42:46;;;;;;;12.30;11.15;;;1.90;97.20;;;;;;1698284;29;20196;-82
2022/01/12 06:43:37;;;;;;;11.20;10.10;;;1.90;97.20;;;;;;1697569;29;20203;-81
2022/01/12 06:44:29;;;;;;;12.00;10.83;;;1.90;97.20;;;;;;1703032;29;20200;-83
2022/01/12 06:45:20;;;;;;;12.85;11.55;;;1.90;97.20;;;;;;1703268;29;20451;-81
2022/01/12 06:46:14;;;;;;;12.73;11.53;;;2.00;97.20;;;;;;1703183;29;20719;-81
2022/01/12 06:47:06;;;;;;;12.98;11.77;;;2.00;97.20;;;;;;1702174;29;20227;-80
2022/01/12 06:47:58;;;;;;;13.68;12.30;;;2.00;97.20;;;;;;1699495;29;20204;-81
2022/01/12 06:48:49;;;;;;;13.35;12.15;;;2.00;97.20;;;;;;1696513;29;20225;-81
2022/01/12 06:49:40;;;;;;;13.13;11.93;;;1.90;97.20;;;;;;1696235;29;20204;-81
2022/01/12 06:50:31;;;;;;;14.75;13.25;;;1.90;97.20;;;;;;1696628;29;20707;-80
2022/01/12 06:51:23;;;;;;;15.50;13.90;;;1.90;97.20;;;;;;1696295;29;20631;-81
2022/01/12 06:52:14;;;;;;;17.08;15.05;;;1.90;97.20;;;;;;1696548;29;20686;-81
2022/01/12 06:53:05;;;;;;;16.13;14.60;;;1.90;97.20;;;;;;1699172;29;20738;-81
2022/01/12 06:53:57;;;;;;;16.77;13.05;;;1.90;97.20;;;;;;1699211;29;20199;-81
2022/01/12 06:54:48;;;;;;;16.05;14.55;;;1.90;97.20;;;;;;1699935;29;20231;-81
2022/01/12 06:55:39;;;;;;;12.80;11.57;;;1.80;97.20;;;;;;1700013;29;20246;-81
2022/01/12 06:56:31;;;;;;;12.90;11.60;;;1.80;97.20;;;;;;1698843;29;20275;-81
2022/01/12 06:57:22;;;;;;;14.43;12.95;;;1.80;97.20;;;;;;1699695;29;20207;-81
2022/01/12 06:58:14;;;;;;;14.80;13.30;;;1.80;97.20;;;;;;1699787;29;20198;-81
2022/01/12 06:59:06;;;;;;;14.43;12.85;;;1.90;97.20;;;;;;1699592;29;20694;-81
2022/01/12 06:59:58;;;;;;;13.98;12.68;;;1.90;97.20;;;;;;1699812;29;20199;-81
2022/01/12 07:00:49;;;;;;;13.02;11.60;;;2.00;97.20;;;;;;1699414;29;20231;-81
2022/01/12 07:01:40;;;;;;;12.70;11.40;;;2.00;97.20;;;;;;1699753;29;20199;-81
2022/01/12 07:02:33;;;;;;;11.93;10.68;;;2.00;97.20;;;;;;1701179;29;20202;-81
2022/01/12 07:03:24;;;;;;;11.75;10.75;;;2.10;97.20;;;;;;1697576;29;20220;-81
2022/01/12 07:04:15;;;;;;;11.60;10.50;;;2.10;97.20;;;;;;1702892;29;20246;-81
2022/01/12 07:05:08;;;;;;;10.73;9.83;;;2.10;97.20;;;;;;1702974;29;20206;-81
2022/01/12 07:05:59;;;;;;;11.52;10.43;;;2.10;97.20;;;;;;1702584;29;20219;-81
2022/01/12 07:06:50;;;;;;;11.63;10.60;;;2.20;97.20;;;;;;1702804;29;20218;-81
2022/01/12 07:07:41;;;;;;;11.30;10.27;;;2.20;97.20;;;;;;1702650;29;20456;-82
2022/01/12 07:08:34;;;;;;;11.17;10.17;;;2.20;97.20;;;;;;1702491;29;20207;-82
2022/01/12 07:09:25;;;;;;;11.93;10.82;;;2.20;97.20;;;;;;1702540;29;20203;-82
2022/01/12 07:10:17;;;;;;;11.97;10.77;;;2.20;97.20;;;;;;1702416;29;20192;-81
2022/01/12 07:11:07;;;;;;;11.82;10.73;;;2.20;97.20;;;;;;1702579;29;20222;-82
2022/01/12 07:11:59;;;;;;;12.53;11.33;;;2.20;97.20;;;;;;1702417;29;20286;-82
2022/01/12 07:12:50;;;;;;;11.80;10.70;;;2.20;97.20;;;;;;1702282;29;20215;-82
2022/01/12 07:13:42;;;;;;;13.10;11.73;;;2.20;97.20;;;;;;1702325;29;20707;-82
2022/01/12 07:14:33;;;;;;;13.48;12.07;;;2.20;97.20;;;;;;1702292;29;20211;-82
2022/01/12 07:15:24;;;;;;;14.90;11.70;;;2.20;97.20;;;;;;1702327;29;20207;-82
2022/01/12 07:16:15;;;;;;;13.30;12.00;;;2.20;97.20;;;;;;1702930;29;20595;-82
2022/01/12 07:17:08;;;;;;;12.13;10.87;;;2.20;97.20;;;;;;1702705;29;20648;-81
2022/01/12 07:18:03;;;;;;;12.05;10.95;;;2.20;97.20;;;;;;1702255;29;20266;-81
2022/01/12 07:18:59;;;;;;;12.30;11.20;;;2.20;97.20;;;;;;1702402;29;20257;-82
2022/01/12 07:19:50;;;;;;;11.50;10.38;;;2.20;97.20;;;;;;1702438;29;20663;-82
2022/01/12 07:20:41;;;;;;;12.70;11.50;;;2.20;97.20;;;;;;1702441;29;20599;-82
2022/01/12 07:21:32;;;;;;;11.95;10.85;;;2.10;97.20;;;;;;1702418;29;20211;-82
2022/01/12 07:22:24;;;;;;;12.07;10.30;;;2.10;97.20;;;;;;1702383;29;20203;-82
2022/01/12 07:23:15;;;;;;;11.68;10.57;;;2.10;97.20;;;;;;1702690;29;20204;-82
2022/01/12 07:24:07;;;;;;;12.83;11.53;;;2.20;97.20;;;;;;1702343;29;20211;-81
2022/01/12 07:24:57;;;;;;;12.00;10.90;;;2.20;97.20;;;;;;1702402;29;20966;-82
2022/01/12 07:25:49;;;;;;;11.40;10.40;;;2.20;97.20;;;;;;1702719;29;20681;-82
2022/01/12 07:26:41;;;;;;;12.20;11.05;;;2.20;97.20;;;;;;1702284;29;20207;-82
2022/01/12 07:27:32;;;;;;;13.98;12.68;;;2.20;97.20;;;;;;1702603;29;20265;-81
2022/01/12 07:28:24;;;;;;;12.83;11.67;;;2.20;97.20;;;;;;1702169;29;20361;-82
2022/01/12 07:29:15;;;;;;;12.40;11.23;;;2.20;97.20;;;;;;1702011;29;20207;-82
2022/01/12 07:30:08;;;;;;;12.53;11.23;;;2.20;97.20;;;;;;1702804;29;20696;-82
2022/01/12 07:30:59;;;;;;;11.35;10.35;;;2.20;97.20;;;;;;1703832;29;20605;-82
2022/01/12 07:31:50;;;;;;;13.00;11.70;;;2.10;97.20;;;;;;1703832;29;20218;-82
2022/01/12 07:32:42;;;;;;;11.77;10.67;;;2.10;97.20;;;;;;1703859;29;20267;-82
2022/01/12 07:33:35;;;;;;;13.75;12.45;;;2.00;97.20;;;;;;1703704;29;20234;-82
2022/01/12 07:34:27;;;;;;;12.13;11.13;;;2.10;97.20;;;;;;1703494;29;20263;-82
2022/01/12 07:35:18;;;;;;;12.73;11.52;;;2.10;97.20;;;;;;1703760;29;20207;-82
2022/01/12 07:36:10;;;;;;;13.17;11.87;;;2.10;97.20;;;;;;1703262;29;20203;-82
2022/01/12 07:37:00;;;;;;;11.68;10.57;;;2.10;97.20;;;;;;1703577;29;20451;-82
2022/01/12 07:37:52;;;;;;;11.77;10.67;;;2.10;97.20;;;;;;1702839;29;20266;-81
2022/01/12 07:38:43;;;;;;;11.55;10.45;;;2.10;97.20;;;;;;1696055;29;20306;-82
2022/01/12 07:39:35;;;;;;;11.40;10.20;;;2.20;97.20;;;;;;1701730;29;20263;-82
2022/01/12 07:40:25;;;;;;;12.50;11.30;;;2.20;97.20;;;;;;1701796;29;20261;-81
2022/01/12 07:41:17;;;;;;;11.27;10.27;;;2.20;97.20;;;;;;1701755;29;20210;-81
2022/01/12 07:42:08;;;;;;;12.45;11.35;;;2.20;97.20;;;;;;1701682;29;20203;-81
2022/01/12 07:43:00;;;;;;;12.13;10.93;;;2.20;97.20;;;;;;1701812;29;20209;-81
2022/01/12 07:43:51;;;;;;;14.30;13.00;;;2.20;97.20;;;;;;1701478;29;20578;-82
2022/01/12 07:44:43;;;;;;;13.47;12.27;;;2.20;97.20;;;;;;1701839;29;20313;-81
2022/01/12 07:45:34;;;;;;;14.30;12.90;;;2.20;97.20;;;;;;1701472;29;20262;-80
2022/01/12 07:46:26;;;;;;;14.05;12.70;;;2.20;97.20;;;;;;1701842;29;20261;-81
2022/01/12 07:47:17;;;;;;;13.50;12.20;;;2.20;97.20;;;;;;1701452;29;20214;-81
2022/01/12 07:48:09;;;;;;;12.70;11.40;;;2.20;97.20;;;;;;1701288;29;20195;-82
2022/01/12 07:49:01;;;;;;;12.85;11.48;;;2.10;97.20;;;;;;1701680;29;20211;-83
2022/01/12 07:49:52;;;;;;;12.48;11.35;;;2.10;97.20;;;;;;1701824;29;20727;-82
2022/01/12 07:50:44;;;;;;;12.05;10.85;;;2.10;97.20;;;;;;1701447;29;20247;-81
2022/01/12 07:51:36;;;;;;;10.95;9.93;;;2.10;97.20;;;;;;1701530;29;20288;-82
2022/01/12 07:52:27;;;;;;;11.32;10.23;;;2.00;97.20;;;;;;1701331;29;20241;-81
2022/01/12 07:53:19;;;;;;;11.48;10.38;;;2.00;97.20;;;;;;1701899;29;20218;-81
2022/01/12 07:54:10;;;;;;;10.77;9.75;;;2.00;97.20;;;;;;1701566;29;20239;-81
2022/01/12 07:55:02;;;;;;;10.73;9.70;;;2.00;97.20;;;;;;1701835;29;20198;-82
2022/01/12 07:55:54;;;;;;;10.77;9.80;;;2.10;97.20;;;;;;1701148;29;20254;-81
2022/01/12 07:56:44;;;;;;;10.45;9.32;;;2.10;97.20;;;;;;1702129;29;20211;-81
2022/01/12 07:57:36;;;;;;;10.90;9.90;;;2.10;97.20;;;;;;1701730;29;20205;-82
2022/01/12 07:58:27;;;;;;;11.25;9.88;;;2.10;97.20;;;;;;1702301;29;20218;-82
2022/01/12 07:59:19;;;;;;;10.47;9.57;;;2.10;97.20;;;;;;1702353;29;20277;-81
2022/01/12 08:00:11;;;;;;;12.02;10.82;;;2.10;97.20;;;;;;1702366;29;20207;-81
2022/01/12 08:01:02;;;;;;;11.98;10.77;;;2.10;97.20;;;;;;1702556;29;20733;-81
2022/01/12 08:01:54;;;;;;;12.30;11.07;;;2.10;97.20;;;;;;1701874;29;20298;-81
2022/01/12 08:02:45;;;;;;;11.88;10.77;;;2.10;97.20;;;;;;1701350;29;20234;-80
2022/01/12 08:03:36;;;;;;;13.83;11.27;;;2.20;97.20;;;;;;1699364;29;20209;-81
2022/01/12 08:04:29;;;;;;;13.32;12.10;;;2.20;97.20;;;;;;1701841;29;20227;-81
2022/01/12 08:05:21;;;;;;;14.35;13.02;;;2.20;97.20;;;;;;1702188;29;20207;-81
2022/01/12 08:06:12;;;;;;;13.88;12.68;;;2.20;97.20;;;;;;1702107;29;20203;-80
2022/01/12 08:07:04;;;;;;;13.40;12.20;;;2.20;97.20;;;;;;1702646;29;20203;-80
2022/01/12 08:07:56;;;;;;;13.07;11.88;;;2.20;97.20;;;;;;1701872;29;20950;-81
2022/01/12 08:08:47;;;;;;;12.70;11.60;;;2.20;97.20;;;;;;1702333;29;20206;-81
2022/01/12 08:09:39;;;;;;;13.63;12.53;;;2.20;97.20;;;;;;1702287;29;20246;-80
2022/01/12 08:10:31;;;;;;;14.02;12.63;;;2.30;97.20;;;;;;1702015;29;20683;-81
2022/01/12 08:11:22;;;;;;;12.40;11.30;;;2.30;97.20;;;;;;1702281;29;20215;-80
2022/01/12 08:12:13;;;;;;;12.27;11.17;;;2.40;97.20;;;;;;1702427;29;20274;-81
2022/01/12 08:13:08;;;;;;;13.40;12.15;;;2.40;97.20;;;;;;1702191;29;20690;-81
2022/01/12 08:13:58;;;;;;;13.10;12.00;;;2.40;97.20;;;;;;1702241;29;20207;-80
2022/01/12 08:14:50;;;;;;;13.80;12.50;;;2.50;97.20;;;;;;1702230;29;20230;-80
2022/01/12 08:15:42;;;;;;;13.00;11.80;;;2.50;97.20;;;;;;1702400;29;20215;-81
2022/01/12 08:16:33;;;;;;;14.65;13.23;;;2.60;97.20;;;;;;1701909;29;20211;-81
2022/01/12 08:17:24;;;;;;;13.43;12.20;;;2.60;97.20;;;;;;1701505;29;20335;-83
2022/01/12 08:18:16;;;;;;;14.48;13.15;;;2.60;97.20;;;;;;1701943;29;20246;-81
2022/01/12 08:19:07;;;;;;;13.32;12.02;;;2.60;97.20;;;;;;1702012;29;20851;-81
2022/01/12 08:20:01;;;;;;;13.97;12.70;;;2.70;97.20;;;;;;1702074;29;20658;-80
2022/01/12 08:20:52;;;;;;;14.10;12.73;;;2.70;97.20;;;;;;1701701;29;21069;-80
2022/01/12 08:21:43;;;;;;;14.33;13.00;;;2.70;97.20;;;;;;1705474;29;20604;-80
2022/01/12 08:22:34;;;;;;;13.57;12.27;;;2.70;97.20;;;;;;1708407;29;20206;-81
2022/01/12 08:23:26;;;;;;;14.60;13.10;;;2.70;97.20;;;;;;1709001;29;20294;-81
2022/01/12 08:24:17;;;;;;;14.43;12.98;;;2.70;97.20;;;;;;1708451;29;20207;-81
2022/01/12 08:25:10;;;;;;;14.63;13.33;;;2.70;97.20;;;;;;1708381;29;20286;-81
2022/01/12 08:26:00;;;;;;;16.25;14.75;;;2.70;97.20;;;;;;1709846;28;20214;-80
2022/01/12 08:26:52;;;;;;;16.50;14.90;;;2.60;97.20;;;;;;1709841;29;20202;-80
2022/01/12 08:27:43;;;;;;;16.58;14.98;;;2.60;97.20;;;;;;1709779;29;20450;-81
2022/01/12 08:28:35;;;;;;;16.07;14.37;;;2.70;97.20;;;;;;1709490;29;20198;-80
2022/01/12 08:29:28;;;;;;;16.17;14.68;;;2.70;97.20;;;;;;1709898;29;20458;-81
2022/01/12 08:30:28;;;;;;;16.67;15.00;;;2.70;97.20;;;;;;1709655;29;20681;-81
2022/01/12 08:31:20;;;;;;;15.90;14.20;;;2.80;97.20;;;;;;1710007;29;20258;-80
2022/01/12 08:32:12;;;;;;;15.45;13.95;;;2.80;97.20;;;;;;1709826;29;20203;-80
2022/01/12 08:33:05;;;;;;;14.77;13.38;;;2.90;97.20;;;;;;1710068;29;20202;-80
2022/01/12 08:33:56;;;;;;;14.82;13.48;;;2.90;97.20;;;;;;1704449;29;20554;-80
2022/01/12 08:34:47;;;;;;;14.73;12.95;;;2.90;97.20;;;;;;1703242;29;20210;-81
2022/01/12 08:35:40;;;;;;;13.87;12.47;;;2.90;97.20;;;;;;1703081;29;20206;-81
2022/01/12 08:36:31;;;;;;;14.82;13.57;;;2.90;97.20;;;;;;1702929;29;20234;-80
2022/01/12 08:37:23;;;;;;;14.50;13.10;;;3.00;97.20;;;;;;1703078;29;20195;-80
2022/01/12 08:38:14;;;;;;;13.73;12.32;;;3.00;97.20;;;;;;1702788;29;20858;-81
2022/01/12 08:39:08;;;;;;;15.32;13.73;;;3.00;97.20;;;;;;1703146;29;20206;-80
2022/01/12 08:39:59;;;;;;;13.77;12.48;;;3.10;97.20;;;;;;1703205;29;20242;-80
2022/01/12 08:40:50;;;;;;;13.85;12.65;;;3.10;97.20;;;;;;1702946;29;20226;-80
2022/01/12 08:41:42;;;;;;;14.23;12.93;;;3.20;97.20;;;;;;1703104;29;20294;-81
2022/01/12 08:42:33;;;;;;;13.73;12.48;;;3.30;97.20;;;;;;1703138;29;20454;-80
2022/01/12 08:43:25;;;;;;;13.17;11.93;;;3.30;97.20;;;;;;1703442;29;20297;-81
2022/01/12 08:44:16;;;;;;;13.52;12.32;;;3.40;97.20;;;;;;1703267;29;20451;-81
2022/01/12 08:45:10;;;;;;;13.43;12.25;;;3.40;97.20;;;;;;1703305;29;20203;-81
2022/01/12 08:46:01;;;;;;;14.13;12.85;;;3.40;97.20;;;;;;1703101;29;20265;-81
2022/01/12 08:46:53;;;;;;;12.52;11.45;;;3.50;97.20;;;;;;1703086;29;20207;-80
2022/01/12 08:47:44;;;;;;;13.88;12.68;;;3.50;97.20;;;;;;1702983;29;20214;-80
2022/01/12 08:48:36;;;;;;;15.35;13.93;;;3.50;97.20;;;;;;1702961;29;20271;-81
2022/01/12 08:49:27;;;;;;;14.13;12.82;;;3.50;97.20;;;;;;1702723;29;20214;-80
2022/01/12 08:50:18;;;;;;;15.80;14.23;;;3.60;97.20;;;;;;1702803;29;20203;-81
2022/01/12 08:51:10;;;;;;;15.50;13.98;;;3.60;97.20;;;;;;1703165;29;21044;-81
2022/01/12 08:52:03;;;;;;;14.68;13.27;;;3.60;97.20;;;;;;1703194;29;20218;-81
2022/01/12 08:52:54;;;;;;;15.57;13.18;;;3.70;97.20;;;;;;1703110;29;20245;-81
2022/01/12 08:53:45;;;;;;;14.07;12.87;;;3.70;97.20;;;;;;1702819;29;20215;-81
2022/01/12 08:54:36;;;;;;;13.20;12.00;;;3.80;97.20;;;;;;1702872;29;20450;-81
2022/01/12 08:55:28;;;;;;;12.00;10.90;;;3.80;97.20;;;;;;1703008;29;20282;-80
2022/01/12 08:56:19;;;;;;;13.35;12.15;;;3.90;97.20;;;;;;1703119;29;20454;-81
2022/01/12 08:57:11;;;;;;;12.95;11.65;;;3.90;97.20;;;;;;1702843;29;20206;-81
2022/01/12 08:58:03;;;;;;;13.93;12.63;;;3.90;97.20;;;;;;1704267;29;20214;-81
2022/01/12 08:58:54;;;;;;;13.48;12.00;;;4.00;97.20;;;;;;1709450;29;20285;-81
2022/01/12 08:59:45;;;;;;;12.25;11.05;;;4.10;97.20;;;;;;1709322;29;20206;-81
2022/01/12 09:00:37;;;;;;;12.57;11.47;;;4.10;97.20;;;;;;1709271;29;20321;-81
2022/01/12 09:01:29;;;;;;;13.77;12.48;;;4.10;97.20;;;;;;1709441;29;20234;-81
2022/01/12 09:02:20;;;;;;;12.70;11.60;;;4.20;97.20;;;;;;1709350;29;20207;-81
2022/01/12 09:03:12;;;;;;;13.27;12.17;;;4.20;97.20;;;;;;1709060;29;20206;-80
2022/01/12 09:04:03;;;;;;;13.73;12.43;;;4.20;97.20;;;;;;1709660;29;20819;-80
2022/01/12 09:04:54;;;;;;;14.90;13.50;;;4.30;97.20;;;;;;1709109;29;20619;-80
2022/01/12 09:05:45;;;;;;;13.10;11.90;;;4.30;97.20;;;;;;1703601;29;20870;-81
2022/01/12 09:06:38;;;;;;;15.00;13.60;;;4.30;97.20;;;;;;1702759;29;20575;-81
2022/01/12 09:07:29;;;;;;;14.75;13.35;;;4.30;97.20;;;;;;1702922;29;20222;-80
2022/01/12 09:08:21;;;;;;;15.10;13.60;;;4.40;97.20;;;;;;1702618;29;20258;-81
2022/01/12 09:09:12;;;;;;;14.20;12.80;;;4.40;97.20;;;;;;1702752;29;20218;-81
2022/01/12 09:10:06;;;;;;;14.13;12.83;;;4.50;97.20;;;;;;1702715;29;20199;-81
2022/01/12 09:10:56;;;;;;;13.90;12.60;;;4.50;97.20;;;;;;1702563;29;20227;-81
2022/01/12 09:11:48;;;;;;;13.30;12.10;;;4.50;97.20;;;;;;1702781;29;20215;-81
2022/01/12 09:12:40;;;;;;;13.52;12.23;;;4.40;97.20;;;;;;1702800;29;20214;-81
2022/01/12 09:13:31;;;;;;;14.00;12.70;;;4.40;97.20;;;;;;1702698;29;20211;-81
2022/01/12 09:14:22;;;;;;;14.63;13.23;;;4.40;97.20;;;;;;1702794;29;20195;-80
2022/01/12 09:15:14;;;;;;;14.00;12.85;;;4.40;97.20;;;;;;1702665;29;20211;-81
2022/01/12 09:16:06;;;;;;;13.35;12.05;;;4.40;97.20;;;;;;1702741;29;20648;-81
2022/01/12 09:16:59;;;;;;;13.60;12.30;;;4.40;97.20;;;;;;1702799;29;20195;-81
2022/01/12 09:17:50;;;;;;;13.80;12.60;;;4.40;97.20;;;;;;1702480;29;20207;-81
2022/01/12 09:18:43;;;;;;;13.93;12.57;;;4.40;97.20;;;;;;1702415;29;20286;-81
2022/01/12 09:19:34;;;;;;;15.15;13.75;;;4.40;97.20;;;;;;1702636;29;20269;-81
2022/01/12 09:20:28;;;;;;;14.50;13.20;;;4.50;97.20;;;;;;1702317;29;20238;-81
2022/01/12 09:21:20;;;;;;;13.13;11.93;;;4.50;97.20;;;;;;1702631;29;20234;-81
2022/01/12 09:22:12;;;;;;;14.50;13.10;;;4.50;97.20;;;;;;1702254;29;20203;-81
2022/01/12 09:23:05;;;;;;;14.55;13.05;;;4.60;97.20;;;;;;1702544;29;20620;-81
2022/01/12 09:23:55;;;;;;;13.68;12.48;;;4.60;97.20;;;;;;1702546;29;20211;-81
2022/01/12 09:24:49;;;;;;;13.53;12.23;;;4.70;97.20;;;;;;1702386;29;20207;-81
2022/01/12 09:25:41;;;;;;;12.80;11.50;;;4.70;97.20;;;;;;1702699;29;20215;-81
2022/01/12 09:26:32;;;;;;;13.40;12.20;;;4.70;97.20;;;;;;1702378;29;20207;-81
2022/01/12 09:27:24;;;;;;;13.20;11.80;;;4.70;97.20;;;;;;1702458;29;20281;-81
2022/01/12 09:28:15;;;;;;;12.40;11.32;;;4.80;97.20;;;;;;1702117;29;20211;-81
2022/01/12 09:29:07;;;;;;;13.17;11.97;;;4.80;97.20;;;;;;1702690;29;20282;-81
2022/01/12 09:29:58;;;;;;;12.80;11.57;;;4.80;97.20;;;;;;1702779;29;20214;-81
2022/01/12 09:30:51;;;;;;;12.90;11.60;;;4.90;97.20;;;;;;1702512;29;20314;-81
2022/01/12 09:31:42;;;;;;;12.35;11.25;;;4.90;97.20;;;;;;1702359;29;20826;-82
2022/01/12 09:32:34;;;;;;;12.20;11.10;;;5.00;97.20;;;;;;1702565;29;20203;-81
2022/01/12 09:33:26;;;;;;;12.55;11.40;;;5.00;97.20;;;;;;1702609;29;20211;-81
2022/01/12 09:34:16;;;;;;;12.30;11.20;;;5.00;97.20;;;;;;1702657;29;20207;-81
2022/01/12 09:35:09;;;;;;;12.93;11.70;;;5.00;97.20;;;;;;1702481;29;20219;-81
2022/01/12 09:36:00;;;;;;;12.60;11.40;;;5.00;97.20;;;;;;1702388;29;20246;-81
2022/01/12 09:36:52;;;;;;;13.00;11.70;;;4.90;97.20;;;;;;1702365;29;20211;-80
2022/01/12 09:37:44;;;;;;;13.02;11.73;;;4.90;97.20;;;;;;1702030;29;20234;-81
2022/01/12 09:38:35;;;;;;;13.73;12.43;;;4.80;97.20;;;;;;1702449;29;20207;-80
2022/01/12 09:39:26;;;;;;;13.40;12.05;;;4.90;97.20;;;;;;1702411;29;20210;-80
2022/01/12 09:40:18;;;;;;;13.10;11.90;;;4.80;97.20;;;;;;1702342;29;20199;-81
2022/01/12 09:41:09;;;;;;;11.75;10.68;;;4.90;97.20;;;;;;1702336;29;20203;-81
2022/01/12 09:42:01;;;;;;;13.47;12.23;;;4.90;97.20;;;;;;1702698;29;20211;-81
2022/01/12 09:42:53;;;;;;;13.38;12.15;;;5.00;97.20;;;;;;1702522;29;20825;-81
2022/01/12 09:43:49;;;;;;;11.90;10.73;;;5.00;97.20;;;;;;1702562;29;20855;-81
2022/01/12 09:44:44;;;;;;;12.50;10.95;;;5.10;97.20;;;;;;1702400;29;20659;-81
2022/01/12 09:45:38;;;;;;;11.80;10.60;;;5.10;97.20;;;;;;1702679;29;20199;-81
2022/01/12 09:46:30;;;;;;;11.80;10.65;;;5.10;97.20;;;;;;1702484;29;20211;-81
2022/01/12 09:47:21;;;;;;;11.80;10.73;;;5.20;97.20;;;;;;1702383;29;20237;-80
2022/01/12 09:48:12;;;;;;;11.73;10.73;;;5.20;97.20;;;;;;1701914;29;20214;-81
2022/01/12 09:49:06;;;;;;;12.90;11.60;;;5.20;97.20;;;;;;1702194;29;20585;-81
2022/01/12 09:49:58;;;;;;;12.10;11.00;;;5.20;97.20;;;;;;1702019;29;20213;-81
2022/01/12 09:50:50;;;;;;;12.20;11.10;;;5.30;97.20;;;;;;1702231;29;20264;-81
2022/01/12 09:51:42;;;;;;;12.32;11.13;;;5.30;97.20;;;;;;1702477;29;20202;-81
2022/01/12 09:52:33;;;;;;;12.23;11.05;;;5.40;97.20;;;;;;1702144;29;20218;-80
2022/01/12 09:53:26;;;;;;;11.83;10.80;;;5.40;97.20;;;;;;1702391;29;20267;-81
2022/01/12 09:54:17;;;;;;;11.98;10.77;;;5.40;97.20;;;;;;1702274;29;20234;-81
2022/01/12 09:55:10;;;;;;;11.85;10.75;;;5.40;97.20;;;;;;1702244;29;20780;-81
2022/01/12 09:56:03;;;;;;;11.40;10.30;;;5.50;97.20;;;;;;1702349;29;20241;-81
2022/01/12 09:56:57;;;;;;;11.77;10.68;;;5.50;97.20;;;;;;1702454;29;20215;-81
2022/01/12 09:57:48;;;;;;;12.45;11.35;;;5.50;97.20;;;;;;1702026;29;20690;-81
2022/01/12 09:58:39;;;;;;;12.10;11.00;;;5.50;97.20;;;;;;1708645;29;20633;-81
2022/01/12 09:59:30;;;;;;;12.68;11.48;;;5.60;97.20;;;;;;1708675;29;20937;-81
2022/01/12 10:00:25;;;;;;;12.18;10.90;;;5.70;97.20;;;;;;1708541;29;20202;-81
2022/01/12 10:01:24;;;;;;;12.50;11.40;;;5.90;97.20;;;;;;1705211;29;20196;-81
2022/01/12 10:02:17;;;;;;;11.27;10.18;;;6.00;97.20;;;;;;1701830;29;20211;-81
2022/01/12 10:03:09;;;;;;;11.05;10.00;;;6.00;97.20;;;;;;1701897;29;20563;-81
2022/01/12 10:04:11;;;;;;;11.98;10.82;;;6.10;97.20;;;;;;1702008;29;20214;-81
2022/01/12 10:05:04;;;;;;;11.77;10.70;;;6.30;97.20;;;;;;1702082;29;20207;-81
2022/01/12 10:05:56;;;;;;;11.27;10.27;;;6.50;97.20;;;;;;1702085;29;20203;-82
2022/01/12 10:06:50;;;;;;;10.55;9.55;;;6.70;97.20;;;;;;1702174;29;20222;-81
2022/01/12 10:07:42;;;;;;;11.35;10.30;;;6.80;97.20;;;;;;1701793;29;20266;-81
2022/01/12 10:08:35;;;;;;;11.55;10.45;;;7.00;97.20;;;;;;1701868;29;20211;-82
2022/01/12 10:09:33;;;;;;;10.35;9.35;;;7.10;97.20;;;;;;1702141;29;20634;-82
2022/01/12 10:10:24;;;;;;;10.48;9.48;;;7.10;97.20;;;;;;1702186;29;20211;-82
2022/01/12 10:11:17;;;;;;;11.67;10.57;;;7.20;97.20;;;;;;1701994;29;20203;-82
2022/01/12 10:12:13;;;;;;;10.40;9.48;;;7.30;97.20;;;;;;1702080;29;20950;-82
2022/01/12 10:13:04;;;;;;;11.38;10.38;;;7.50;97.20;;;;;;1702332;29;20207;-82
2022/01/12 10:13:57;;;;;;;10.77;9.70;;;7.70;97.20;;;;;;1702136;29;20237;-82
2022/01/12 10:14:52;;;;;;;10.23;9.30;;;7.90;97.20;;;;;;1702198;29;20517;-82
2022/01/12 10:15:42;;;;;;;11.30;10.32;;;8.00;97.20;;;;;;1702142;29;20306;-82
2022/01/12 10:16:34;;;;;;;12.13;11.03;;;8.20;97.20;;;;;;1702049;29;20207;-82
2022/01/12 10:17:32;;;;;;;11.50;10.48;;;8.40;97.20;;;;;;1701583;29;20211;-82
2022/01/12 10:18:24;;;;;;;11.23;10.23;;;8.50;97.20;;;;;;1701902;29;20258;-81
2022/01/12 10:19:26;;;;;;;10.85;9.95;;;8.50;97.20;;;;;;1701636;29;20730;-81
2022/01/12 10:20:21;;;;;;;11.48;10.38;;;8.50;97.20;;;;;;1702059;29;20862;-81
2022/01/12 10:21:11;;;;;;;10.90;9.90;;;8.50;97.20;;;;;;1701933;29;20211;-81
2022/01/12 10:22:06;;;;;;;11.83;10.77;;;8.60;97.20;;;;;;1701629;29;20772;-81
2022/01/12 10:22:58;;;;;;;11.48;10.48;;;8.70;97.20;;;;;;1701902;29;20625;-82
2022/01/12 10:24:01;;;;;;;10.90;9.93;;;8.80;97.20;;;;;;1701748;29;20274;-82
2022/01/12 10:24:52;;;;;;;10.77;9.80;;;9.00;97.20;;;;;;1702092;29;20215;-82
2022/01/12 10:25:46;;;;;;;11.10;10.05;;;9.20;97.20;;;;;;1702147;29;20210;-82
2022/01/12 10:26:40;;;;;;;11.35;10.30;;;9.40;97.20;;;;;;1701883;29;20208;-82
2022/01/12 10:27:39;;;;;;;11.13;10.02;;;9.60;97.20;;;;;;1701887;29;20214;-82
2022/01/12 10:28:30;;;;;;;11.70;10.55;;;9.80;97.20;;;;;;1701768;29;20687;-82
2022/01/12 10:29:24;;;;;;;11.00;10.10;;;9.90;97.20;;;;;;1701970;29;20207;-82